Time;durP1;ratioP1;P1;durP2;ratioP2;P2;SDS_P1;SDS_P2;PMS_P1;PMS_P2;Temp;Humidity;BMP_temperature;BMP_pressure;BME280_temperature;BME280_humidity;BME280_pressure;Samples;Min_cycle;Max_cycle;Signal;HPM_P1;HPM_P2
2023/06/06 00:01:43;;;;;;;1.42;1.33;;;;;;;17.28;88.32;99582.50;5034032;28;20133;-62
2023/06/06 00:04:12;;;;;;;1.10;1.00;;;;;;;17.43;88.09;99610.44;5035510;28;20399;-62
2023/06/06 00:06:44;;;;;;;0.83;0.83;;;;;;;17.37;88.18;99613.19;5035189;28;20128;-62
2023/06/06 00:09:14;;;;;;;0.75;0.75;;;;;;;17.34;88.15;99604.69;5035459;28;20798;-62
2023/06/06 00:11:46;;;;;;;2.22;1.13;;;;;;;17.31;88.08;99610.78;5035076;28;20045;-62
2023/06/06 00:14:16;;;;;;;5.57;2.03;;;;;;;17.20;88.01;99597.34;5034247;28;20088;-62
2023/06/06 00:16:49;;;;;;;1.45;1.35;;;;;;;17.27;88.18;99613.50;5035078;28;20041;-62
2023/06/06 00:19:20;;;;;;;1.38;1.00;;;;;;;17.31;88.24;99605.63;5035294;28;20042;-62
2023/06/06 00:21:50;;;;;;;0.85;0.85;;;;;;;17.33;88.16;99611.59;5034870;28;20049;-62
2023/06/06 00:24:21;;;;;;;1.70;1.25;;;;;;;17.29;88.35;99617.75;5035540;28;20041;-62
2023/06/06 00:26:50;;;;;;;1.00;0.90;;;;;;;17.25;88.18;99610.94;5033775;28;20045;-62
2023/06/06 00:29:19;;;;;;;0.73;0.73;;;;;;;17.25;88.45;99617.88;5034603;28;20056;-62
2023/06/06 00:31:48;;;;;;;1.45;1.35;;;;;;;17.21;88.72;99616.25;5033822;28;20403;-62
2023/06/06 00:34:18;;;;;;;1.15;0.93;;;;;;;17.19;88.78;99610.28;5034696;28;20045;-62
2023/06/06 00:36:47;;;;;;;1.23;1.13;;;;;;;17.19;88.90;99608.56;5034628;28;20048;-62
2023/06/06 00:39:16;;;;;;;0.77;0.77;;;;;;;16.97;89.23;99576.53;5033470;28;20046;-62
2023/06/06 00:41:48;;;;;;;2.63;1.65;;;;;;;17.12;89.49;99599.31;5034481;28;20053;-62
2023/06/06 00:44:18;;;;;;;1.25;1.15;;;;;;;17.06;89.58;99603.81;5033419;28;20068;-62
2023/06/06 00:46:47;;;;;;;;;;;;;;;17.01;89.82;99596.19;5033780;28;20053;-62
2023/06/06 00:49:17;;;;;;;1.73;1.38;;;;;;;17.00;90.14;99594.50;5034490;28;19921;-62
2023/06/06 00:51:47;;;;;;;2.58;1.92;;;;;;;16.72;90.40;99547.19;5033818;28;20100;-62
2023/06/06 00:54:19;;;;;;;1.38;1.27;;;;;;;17.04;90.54;99593.53;5033153;28;20065;-62
2023/06/06 00:56:51;;;;;;;0.70;0.70;;;;;;;17.11;90.54;99602.78;5033147;28;20091;-62
2023/06/06 00:59:23;;;;;;;2.05;1.70;;;;;;;17.08;90.37;99600.31;5033390;28;20057;-62
2023/06/06 01:01:52;;;;;;;1.25;1.15;;;;;;;17.15;90.67;99611.28;5033342;28;20110;-62
2023/06/06 01:04:24;;;;;;;1.98;1.48;;;;;;;17.19;90.88;99597.41;5034208;28;20045;-62
2023/06/06 01:06:55;;;;;;;1.33;1.10;;;;;;;17.14;90.88;99597.53;5034111;28;20087;-62
2023/06/06 01:09:24;;;;;;;0.75;0.70;;;;;;;17.22;91.05;99611.06;5034087;28;20053;-62
2023/06/06 01:12:06;;;;;;;3.22;1.35;;;;;;;17.20;91.24;99607.66;5034033;28;20050;-62
2023/06/06 01:14:43;;;;;;;1.25;1.13;;;;;;;17.16;91.04;99603.50;5034169;28;20369;-62
2023/06/06 01:17:17;;;;;;;1.45;1.13;;;;;;;17.17;91.47;99591.44;5033058;28;20060;-62
2023/06/06 01:19:49;;;;;;;3.22;1.70;;;;;;;17.25;91.33;99600.63;5034224;28;20136;-62
2023/06/06 01:22:22;;;;;;;1.65;1.50;;;;;;;17.25;91.43;99604.97;5032752;28;20132;-62
2023/06/06 01:24:52;;;;;;;6.00;2.95;;;;;;;17.26;91.53;99599.75;5034011;28;20049;-62
2023/06/06 01:27:21;;;;;;;;;;;;;;;17.24;91.57;99598.97;5034204;28;20049;-62
2023/06/06 01:29:50;;;;;;;0.57;0.57;;;;;;;17.23;91.41;99602.41;5033699;28;19921;-62
2023/06/06 01:32:28;;;;;;;2.03;1.58;;;;;;;17.18;91.76;99604.28;5032546;28;20069;-62
2023/06/06 01:35:03;;;;;;;1.58;1.00;;;;;;;17.25;91.54;99605.78;5032483;28;20041;-62
2023/06/06 01:37:45;;;;;;;1.45;1.35;;;;;;;17.27;91.68;99604.03;5032807;28;20517;-62
2023/06/06 01:40:16;;;;;;;0.95;0.75;;;;;;;17.26;91.54;99606.66;5033644;28;20084;-62
2023/06/06 01:42:49;;;;;;;0.75;0.75;;;;;;;17.24;91.75;99609.28;5034033;28;20049;-62
2023/06/06 01:45:24;;;;;;;6.25;1.42;;;;;;;17.23;91.87;99607.56;5033606;28;20045;-62
2023/06/06 01:47:54;;;;;;;1.30;1.20;;;;;;;17.27;91.63;99610.94;5033581;28;20050;-62
2023/06/06 01:50:23;;;;;;;0.88;0.88;;;;;;;17.26;91.65;99612.66;5033497;28;20041;-62
2023/06/06 01:52:56;;;;;;;1.17;0.80;;;;;;;17.26;91.71;99610.06;5032271;28;20462;-62
2023/06/06 01:55:25;;;;;;;3.00;2.00;;;;;;;17.08;91.58;99577.09;5033432;28;20402;-62
2023/06/06 01:57:54;;;;;;;1.57;1.47;;;;;;;17.08;91.76;99589.97;5032262;28;20061;-62
2023/06/06 02:00:25;;;;;;;1.35;1.25;;;;;;;16.97;91.58;99580.84;5033423;28;20052;-62
2023/06/06 02:02:53;;;;;;;1.98;1.52;;;;;;;17.11;91.81;99613.09;5034027;28;20049;-62
2023/06/06 02:05:22;;;;;;;1.10;1.00;;;;;;;17.09;91.70;99609.72;5037429;28;20056;-62
2023/06/06 02:07:52;;;;;;;0.85;0.82;;;;;;;16.99;91.82;99591.97;5037399;28;20136;-62
2023/06/06 02:10:23;;;;;;;1.55;1.00;;;;;;;17.06;91.81;99608.97;5037691;28;20180;-62
2023/06/06 02:12:52;;;;;;;1.30;1.20;;;;;;;16.90;91.85;99582.75;5036211;28;20053;-62
2023/06/06 02:15:21;;;;;;;1.48;1.05;;;;;;;16.99;91.69;99594.56;5036214;28;20100;-62
2023/06/06 02:17:50;;;;;;;1.52;1.20;;;;;;;17.09;91.84;99614.88;5036093;28;20056;-63
2023/06/06 02:20:19;;;;;;;1.40;1.30;;;;;;;17.11;91.70;99613.09;5037250;28;20056;-62
2023/06/06 02:22:48;;;;;;;1.40;1.30;;;;;;;17.09;91.63;99607.13;5035987;28;20298;-62
2023/06/06 02:25:17;;;;;;;2.70;1.27;;;;;;;16.94;91.53;99579.19;5035982;28;20065;-62
2023/06/06 02:27:48;;;;;;;1.67;1.38;;;;;;;17.13;91.57;99610.47;5035697;28;20077;-62
2023/06/06 02:30:18;;;;;;;1.02;0.93;;;;;;;17.10;91.38;99616.56;5037070;28;20115;-62
2023/06/06 02:32:50;;;;;;;2.60;1.48;;;;;;;17.03;91.39;99609.91;5037017;28;20095;-62
2023/06/06 02:35:20;;;;;;;1.35;1.25;;;;;;;17.09;91.25;99625.19;5036000;28;20439;-62
2023/06/06 02:37:50;;;;;;;1.73;1.52;;;;;;;17.05;91.41;99613.28;5035659;28;20495;-62
2023/06/06 02:40:18;;;;;;;2.10;1.55;;;;;;;17.03;91.09;99615.06;5035973;28;20049;-62
2023/06/06 02:42:49;;;;;;;2.25;1.40;;;;;;;17.08;91.19;99617.50;5035713;28;20518;-62
2023/06/06 02:45:21;;;;;;;2.03;1.73;;;;;;;17.09;90.95;99625.19;5035642;28;20045;-62
2023/06/06 02:47:50;;;;;;;2.05;1.20;;;;;;;17.07;90.91;99611.50;5035775;28;20449;-62
2023/06/06 02:50:21;;;;;;;1.83;0.95;;;;;;;17.11;90.90;99615.66;5036957;28;20507;-62
2023/06/06 02:52:51;;;;;;;4.22;1.08;;;;;;;16.94;90.63;99584.34;5036629;28;20045;-62
2023/06/06 02:55:20;;;;;;;0.90;0.85;;;;;;;16.96;90.83;99590.31;5036581;28;20038;-62
2023/06/06 02:57:51;;;;;;;1.27;0.88;;;;;;;17.07;90.66;99614.06;5036762;28;20041;-62
2023/06/06 03:00:21;;;;;;;0.50;0.50;;;;;;;17.07;90.67;99616.66;5036803;28;20055;-63
2023/06/06 03:02:50;;;;;;;1.83;1.63;;;;;;;17.02;90.88;99608.19;5051893;28;20160;-62
2023/06/06 03:05:19;;;;;;;1.38;1.27;;;;;;;17.06;90.95;99621.88;5035140;28;20049;-62
2023/06/06 03:07:48;;;;;;;1.60;0.90;;;;;;;17.06;91.01;99614.94;5036315;28;20487;-62
2023/06/06 03:10:17;;;;;;;1.45;1.23;;;;;;;17.08;90.85;99620.09;5036534;28;20046;-62
2023/06/06 03:12:51;;;;;;;1.17;1.08;;;;;;;17.08;90.91;99617.50;5036310;28;20057;-62
2023/06/06 03:15:21;;;;;;;2.92;1.40;;;;;;;16.91;90.89;99578.44;5034502;28;20044;-62
2023/06/06 03:17:52;;;;;;;0.93;0.93;;;;;;;17.10;90.93;99621.72;5035094;28;20451;-62
2023/06/06 03:20:26;;;;;;;1.17;1.08;;;;;;;17.11;90.94;99618.25;5034903;28;20132;-62
2023/06/06 03:23:04;;;;;;;;;;;;;;;17.11;90.99;99627.72;5036536;28;20103;-62
2023/06/06 03:25:34;;;;;;;1.00;0.93;;;;;;;17.12;91.03;99619.09;5036113;28;19921;-62
2023/06/06 03:28:05;;;;;;;0.77;0.77;;;;;;;17.12;90.68;99624.25;5034799;28;20420;-62
2023/06/06 03:30:33;;;;;;;1.45;1.15;;;;;;;17.11;90.76;99620.81;5034776;28;20482;-61
2023/06/06 03:33:03;;;;;;;1.45;1.20;;;;;;;16.96;90.80;99598.06;5034697;28;20128;-62
2023/06/06 03:35:33;;;;;;;1.60;1.25;;;;;;;17.12;90.64;99619.94;5035833;28;20050;-62
2023/06/06 03:38:05;;;;;;;2.83;1.60;;;;;;;17.10;90.68;99626.03;5036510;28;20576;-62
2023/06/06 03:40:34;;;;;;;3.42;1.35;;;;;;;17.00;90.67;99617.72;5034562;28;20045;-62
2023/06/06 03:43:05;;;;;;;0.60;0.55;;;;;;;17.08;90.78;99618.34;5035784;28;20065;-61
2023/06/06 03:45:36;;;;;;;2.10;1.13;;;;;;;16.89;90.87;99591.38;5035582;28;20046;-61
2023/06/06 03:48:05;;;;;;;1.08;1.00;;;;;;;16.98;90.80;99611.75;5035906;28;20183;-61
2023/06/06 03:50:34;;;;;;;1.65;1.35;;;;;;;17.09;90.99;99626.91;5035856;28;20045;-62
2023/06/06 03:53:04;;;;;;;1.63;1.52;;;;;;;16.95;90.82;99596.34;5034607;28;20060;-61
2023/06/06 03:55:33;;;;;;;1.08;0.98;;;;;;;17.17;90.84;99627.56;5036072;28;20075;-61
2023/06/06 03:58:03;;;;;;;1.33;1.20;;;;;;;17.18;90.85;99635.22;5035726;28;20049;-61
2023/06/06 04:00:33;;;;;;;1.90;1.50;;;;;;;17.18;90.84;99630.06;5034197;28;20483;-61
2023/06/06 04:03:03;;;;;;;0.90;0.90;;;;;;;17.01;90.65;99609.06;5034057;28;20107;-62
2023/06/06 04:05:35;;;;;;;1.58;1.40;;;;;;;17.08;90.58;99631.25;5035243;28;20579;-61
2023/06/06 04:08:07;;;;;;;2.90;1.15;;;;;;;17.09;90.48;99645.81;5034408;28;20075;-61
2023/06/06 04:10:36;;;;;;;2.75;1.88;;;;;;;17.07;90.48;99642.44;5035120;28;20050;-61
2023/06/06 04:13:05;;;;;;;1.38;1.08;;;;;;;17.06;90.80;99642.50;5035110;28;20136;-61
2023/06/06 04:15:36;;;;;;;1.57;1.30;;;;;;;17.10;91.00;99647.53;5035052;28;20499;-61
2023/06/06 04:18:05;;;;;;;1.90;1.65;;;;;;;17.15;91.15;99645.66;5035036;28;20370;-62
2023/06/06 04:20:34;;;;;;;1.42;1.20;;;;;;;17.14;90.94;99641.38;5035194;28;20056;-62
2023/06/06 04:23:03;;;;;;;1.90;1.53;;;;;;;17.12;90.86;99645.75;5035202;28;20406;-62
2023/06/06 04:25:32;;;;;;;1.80;1.70;;;;;;;17.15;90.94;99640.50;5033015;28;20622;-62
2023/06/06 04:28:01;;;;;;;1.88;1.15;;;;;;;17.17;91.04;99643.03;5033448;28;20370;-62
2023/06/06 04:30:32;;;;;;;1.67;1.33;;;;;;;17.12;90.95;99640.59;5034740;28;20061;-62
2023/06/06 04:33:05;;;;;;;1.35;1.15;;;;;;;17.14;90.97;99637.94;5034741;28;20056;-62
2023/06/06 04:35:34;;;;;;;1.15;1.05;;;;;;;17.13;90.87;99641.44;5033744;28;20057;-62
2023/06/06 04:38:03;;;;;;;1.30;1.17;;;;;;;17.13;91.16;99644.84;5034945;28;20510;-62
2023/06/06 04:40:32;;;;;;;1.83;1.70;;;;;;;17.08;90.98;99641.56;5034872;28;20053;-62
2023/06/06 04:43:23;;;;;;;1.90;1.52;;;;;;;17.05;91.35;99639.06;5033714;28;20271;-62
2023/06/06 04:45:57;;;;;;;2.95;1.73;;;;;;;17.07;91.29;99647.59;5033314;28;20069;-62
2023/06/06 04:48:28;;;;;;;1.40;1.13;;;;;;;17.08;91.31;99641.56;5033274;28;20045;-62
2023/06/06 04:50:58;;;;;;;1.20;1.10;;;;;;;17.08;91.57;99644.16;5033180;28;20573;-63
2023/06/06 04:53:28;;;;;;;1.17;1.08;;;;;;;17.07;91.52;99652.75;5034315;28;20559;-62
2023/06/06 04:55:57;;;;;;;0.63;0.63;;;;;;;17.08;91.91;99649.31;5034609;28;20043;-62
2023/06/06 04:58:28;;;;;;;0.95;0.95;;;;;;;17.05;91.84;99638.22;5034526;28;20053;-62
2023/06/06 05:00:57;;;;;;;3.00;1.55;;;;;;;17.06;91.82;99650.22;5034493;28;20052;-62
2023/06/06 05:03:28;;;;;;;2.78;1.50;;;;;;;17.05;91.99;99649.38;5034161;28;20136;-62
2023/06/06 05:05:57;;;;;;;3.50;1.42;;;;;;;17.07;92.04;99652.75;5034107;28;20056;-62
2023/06/06 05:08:31;;;;;;;1.05;0.95;;;;;;;17.03;92.12;99646.00;5034116;28;20045;-62
2023/06/06 05:11:00;;;;;;;1.80;1.60;;;;;;;16.86;92.31;99619.81;5034057;28;20503;-62
2023/06/06 05:13:29;;;;;;;3.10;1.70;;;;;;;17.03;92.41;99648.56;5034312;28;20049;-62
2023/06/06 05:15:58;;;;;;;8.20;2.00;;;;;;;16.86;92.39;99622.41;5033939;28;20337;-62
2023/06/06 05:18:30;;;;;;;2.00;1.77;;;;;;;17.00;92.68;99646.06;5033889;28;20366;-63
2023/06/06 05:21:02;;;;;;;1.60;1.50;;;;;;;16.93;92.60;99631.66;5034166;28;20447;-62
2023/06/06 05:23:31;;;;;;;4.95;0.90;;;;;;;16.85;92.86;99641.31;5034150;28;20041;-62
2023/06/06 05:26:01;;;;;;;1.05;0.98;;;;;;;16.88;92.73;99645.56;5034279;28;20394;-62
2023/06/06 05:28:30;;;;;;;1.30;1.15;;;;;;;16.77;92.79;99630.38;5033595;28;20123;-62
2023/06/06 05:31:00;;;;;;;1.58;1.27;;;;;;;16.77;92.89;99629.53;5033852;28;20570;-62
2023/06/06 05:33:31;;;;;;;2.15;1.75;;;;;;;16.87;92.77;99638.72;5033643;28;20045;-62
2023/06/06 05:36:02;;;;;;;0.75;0.75;;;;;;;16.87;92.80;99649.84;5033750;28;20049;-62
2023/06/06 05:38:31;;;;;;;1.85;1.50;;;;;;;16.88;92.88;99645.56;5033764;28;20056;-62
2023/06/06 05:41:03;;;;;;;0.52;0.52;;;;;;;16.91;92.81;99646.31;5033696;28;20132;-62
2023/06/06 05:43:33;;;;;;;3.70;2.38;;;;;;;16.88;92.67;99646.41;5033442;28;20048;-62
2023/06/06 05:46:03;;;;;;;1.77;1.63;;;;;;;16.88;92.91;99651.56;5033769;28;20049;-62
2023/06/06 05:48:34;;;;;;;2.42;1.83;;;;;;;16.91;92.96;99648.06;5033683;28;20053;-62
2023/06/06 05:51:03;;;;;;;0.88;0.85;;;;;;;16.88;92.65;99650.72;5033539;28;20049;-62
2023/06/06 05:53:32;;;;;;;1.30;1.20;;;;;;;16.88;93.08;99648.97;5033475;28;20073;-62
2023/06/06 05:56:01;;;;;;;1.55;1.45;;;;;;;16.82;93.07;99650.88;5033828;28;20129;-62
2023/06/06 05:58:30;;;;;;;3.67;2.30;;;;;;;16.85;93.02;99656.78;5033468;28;20045;-62
2023/06/06 06:01:00;;;;;;;1.90;1.57;;;;;;;16.79;93.03;99656.97;5033236;28;20053;-62
2023/06/06 06:03:29;;;;;;;1.75;1.52;;;;;;;16.80;93.34;99663.78;5033632;28;20328;-62
2023/06/06 06:06:04;;;;;;;15.20;1.10;;;;;;;16.83;93.26;99663.72;5033157;28;20058;-63
2023/06/06 06:08:35;;;;;;;3.95;1.98;;;;;;;16.80;93.38;99668.94;5033284;28;20069;-62
2023/06/06 06:11:07;;;;;;;1.63;1.52;;;;;;;16.82;93.66;99662.03;5033329;28;20128;-62
2023/06/06 06:13:37;;;;;;;1.10;1.00;;;;;;;16.84;93.80;99670.59;5033530;28;20073;-62
2023/06/06 06:16:07;;;;;;;1.15;1.05;;;;;;;16.88;93.88;99666.19;5033378;28;20061;-63
2023/06/06 06:18:36;;;;;;;2.38;2.00;;;;;;;16.73;93.85;99641.66;5033237;28;20060;-62
2023/06/06 06:21:06;;;;;;;5.60;1.67;;;;;;;16.89;94.20;99663.59;5033187;28;20511;-62
2023/06/06 06:23:35;;;;;;;2.15;1.25;;;;;;;16.91;94.13;99669.53;5033174;28;20057;-62
2023/06/06 06:26:04;;;;;;;1.70;1.20;;;;;;;16.91;94.34;99672.13;5033155;28;20049;-62
2023/06/06 06:28:33;;;;;;;1.50;1.17;;;;;;;16.94;94.40;99672.00;5033081;28;20061;-62
2023/06/06 06:31:02;;;;;;;4.68;1.27;;;;;;;16.96;94.19;99672.84;5033468;28;20056;-62
2023/06/06 06:33:33;;;;;;;0.98;0.90;;;;;;;16.96;94.41;99667.69;5033162;28;20049;-63
2023/06/06 06:36:03;;;;;;;1.35;1.25;;;;;;;16.96;94.01;99667.69;5033689;28;20400;-62
2023/06/06 06:38:36;;;;;;;1.33;1.23;;;;;;;16.94;94.09;99660.88;5033305;28;20052;-62
2023/06/06 06:41:05;;;;;;;2.20;1.05;;;;;;;16.95;94.23;99678.88;5033419;28;20037;-62
2023/06/06 06:43:34;;;;;;;2.28;2.05;;;;;;;16.95;94.51;99668.56;5033139;28;20099;-63
2023/06/06 06:46:12;;;;;;;1.25;1.10;;;;;;;16.93;94.19;99675.50;5032883;28;20547;-63
2023/06/06 06:48:44;;;;;;;0.98;0.73;;;;;;;16.87;94.25;99674.81;5033495;28;20068;-63
2023/06/06 06:51:16;;;;;;;1.38;1.08;;;;;;;16.85;94.30;99677.41;5036910;28;20048;-63
2023/06/06 06:53:46;;;;;;;0.82;0.82;;;;;;;16.86;94.33;99675.69;5036549;28;20124;-63
2023/06/06 06:56:16;;;;;;;4.80;1.58;;;;;;;16.91;94.24;99682.44;5036857;28;20544;-63
2023/06/06 06:58:45;;;;;;;1.90;1.05;;;;;;;16.92;94.32;99678.94;5036459;28;20081;-63
2023/06/06 07:01:16;;;;;;;1.53;1.20;;;;;;;16.77;94.33;99653.59;5036773;28;20423;-63
2023/06/06 07:03:48;;;;;;;1.45;1.20;;;;;;;16.91;94.39;99679.00;5036467;28;20287;-63
2023/06/06 07:06:18;;;;;;;1.27;1.00;;;;;;;16.90;94.37;99675.56;5036316;28;20518;-63
2023/06/06 07:08:52;;;;;;;2.53;1.92;;;;;;;16.90;94.36;99675.56;5036499;28;20053;-63
2023/06/06 07:11:21;;;;;;;0.95;0.88;;;;;;;16.93;94.45;99670.34;5036265;28;20080;-62
2023/06/06 07:13:50;;;;;;;3.53;1.67;;;;;;;16.97;94.33;99682.25;5036571;28;20432;-62
2023/06/06 07:16:20;;;;;;;1.83;1.67;;;;;;;16.96;94.30;99680.56;5036729;28;20683;-63
2023/06/06 07:18:51;;;;;;;0.90;0.85;;;;;;;16.95;94.27;99673.72;5036444;28;20715;-63
2023/06/06 07:21:21;;;;;;;1.38;1.27;;;;;;;17.07;94.50;99688.88;5036069;28;20049;-62
2023/06/06 07:23:51;;;;;;;2.78;1.50;;;;;;;17.12;94.50;99686.16;5036672;28;20046;-63
2023/06/06 07:26:20;;;;;;;1.08;0.98;;;;;;;17.11;94.52;99685.31;5036097;28;20049;-63
2023/06/06 07:28:49;;;;;;;1.87;1.40;;;;;;;17.09;94.34;99689.66;5035846;28;20495;-63
2023/06/06 07:31:18;;;;;;;1.30;1.17;;;;;;;17.06;94.45;99676.84;5035908;28;20059;-63
2023/06/06 07:33:48;;;;;;;1.10;1.00;;;;;;;17.14;94.53;99687.81;5034625;28;20392;-63
2023/06/06 07:36:27;;;;;;;2.00;1.08;;;;;;;17.13;94.44;99688.69;5035974;28;20052;-63
2023/06/06 07:38:58;;;;;;;2.83;1.60;;;;;;;17.15;94.54;99683.50;5035634;28;20041;-63
2023/06/06 07:41:29;;;;;;;1.77;1.45;;;;;;;17.21;94.43;99691.06;5035856;28;20279;-63
2023/06/06 07:43:58;;;;;;;12.13;1.77;;;;;;;17.24;94.61;99691.84;5035637;28;20156;-63
2023/06/06 07:46:27;;;;;;;2.20;1.33;;;;;;;17.31;94.79;99695.94;5035559;28;20049;-64
2023/06/06 07:48:56;;;;;;;1.52;0.98;;;;;;;17.35;94.74;99689.78;5035602;28;20046;-63
2023/06/06 07:51:26;;;;;;;1.90;1.10;;;;;;;17.31;94.41;99698.50;5035723;28;20049;-63
2023/06/06 07:53:55;;;;;;;1.33;1.23;;;;;;;17.30;94.50;99691.66;5035544;28;20072;-63
2023/06/06 07:56:25;;;;;;;0.67;0.67;;;;;;;17.32;94.48;99682.13;5035453;28;20423;-64
2023/06/06 07:58:54;;;;;;;1.02;0.93;;;;;;;17.31;94.46;99688.19;5035929;28;20138;-63
2023/06/06 08:01:25;;;;;;;0.65;0.65;;;;;;;17.30;94.24;99680.47;5035660;28;20060;-64
2023/06/06 08:03:55;;;;;;;0.73;0.73;;;;;;;17.34;94.50;99677.78;5036119;28;20545;-64
2023/06/06 08:06:24;;;;;;;3.72;1.58;;;;;;;17.36;94.33;99681.16;5035243;28;20052;-64
2023/06/06 08:08:53;;;;;;;1.25;1.13;;;;;;;17.37;94.23;99682.84;5033869;28;20050;-64
2023/06/06 08:11:22;;;;;;;1.33;1.13;;;;;;;17.34;94.32;99677.78;5035475;28;20041;-64
2023/06/06 08:13:52;;;;;;;4.50;1.40;;;;;;;17.15;94.19;99653.41;5035153;28;20049;-63
2023/06/06 08:16:21;;;;;;;1.65;1.15;;;;;;;17.26;94.40;99672.00;5035383;28;20278;-65
2023/06/06 08:18:50;;;;;;;1.67;1.30;;;;;;;17.33;94.39;99681.25;5034923;28;20045;-64
2023/06/06 08:21:22;;;;;;;1.42;1.13;;;;;;;17.24;94.21;99676.34;5034420;28;20048;-64
2023/06/06 08:23:51;;;;;;;5.13;1.20;;;;;;;17.26;94.10;99674.56;5034972;28;20041;-64
2023/06/06 08:26:23;;;;;;;0.73;0.45;;;;;;;17.25;94.08;99682.38;5035158;28;20045;-64
2023/06/06 08:28:54;;;;;;;1.17;0.85;;;;;;;17.30;94.13;99677.88;5034607;28;20056;-64
2023/06/06 08:31:23;;;;;;;0.68;0.68;;;;;;;17.29;94.15;99678.81;5034989;28;20395;-64
2023/06/06 08:33:52;;;;;;;1.15;1.05;;;;;;;17.28;94.21;99677.94;5034962;28;20041;-64
2023/06/06 08:36:20;;;;;;;1.20;1.10;;;;;;;17.26;94.08;99684.88;5033465;28;20068;-64
2023/06/06 08:38:49;;;;;;;0.87;0.83;;;;;;;17.26;94.00;99684.88;5034908;28;20049;-64
2023/06/06 08:41:20;;;;;;;0.40;0.40;;;;;;;17.29;93.75;99689.13;5034272;28;20278;-64
2023/06/06 08:43:51;;;;;;;0.93;0.80;;;;;;;17.29;93.82;99689.97;5034441;28;20144;-63
2023/06/06 08:46:23;;;;;;;1.30;1.20;;;;;;;17.31;93.58;99685.63;5034447;28;20049;-63
2023/06/06 08:48:53;;;;;;;1.85;0.70;;;;;;;17.34;93.47;99682.97;5034792;28;20053;-63
2023/06/06 08:51:27;;;;;;;0.77;0.77;;;;;;;17.42;93.65;99687.88;5035335;28;20137;-64
2023/06/06 08:53:57;;;;;;;0.50;0.50;;;;;;;17.43;93.41;99687.84;5034671;28;20057;-63
2023/06/06 08:56:26;;;;;;;7.65;0.80;;;;;;;17.39;93.20;99681.09;5033192;28;20099;-63
2023/06/06 08:58:57;;;;;;;0.73;0.73;;;;;;;17.49;93.11;99686.00;5034599;28;20103;-64
2023/06/06 09:01:29;;;;;;;0.70;0.70;;;;;;;17.47;93.15;99680.03;5033531;28;20056;-63
2023/06/06 09:03:59;;;;;;;0.65;0.65;;;;;;;17.47;92.91;99685.19;5034848;28;20476;-63
2023/06/06 09:06:28;;;;;;;0.98;0.93;;;;;;;17.43;92.77;99682.69;5034390;28;20171;-63
2023/06/06 09:08:57;;;;;;;0.73;0.73;;;;;;;17.49;92.81;99686.00;5032862;28;20124;-63
2023/06/06 09:11:26;;;;;;;1.73;1.27;;;;;;;17.51;92.71;99694.53;5033973;28;20411;-63
2023/06/06 09:13:55;;;;;;;2.80;1.15;;;;;;;17.46;92.72;99696.38;5033938;28;20293;-63
2023/06/06 09:16:26;;;;;;;1.20;1.05;;;;;;;17.44;92.47;99694.69;5033122;28;20124;-63
2023/06/06 09:19:00;;;;;;;0.52;0.52;;;;;;;17.44;92.30;99688.69;5034224;28;20072;-63
2023/06/06 09:21:32;;;;;;;0.40;0.40;;;;;;;17.54;92.57;99689.31;5033924;28;20053;-63
2023/06/06 09:24:01;;;;;;;0.70;0.70;;;;;;;17.42;92.03;99665.50;5034138;28;20513;-63
2023/06/06 09:26:34;;;;;;;0.65;0.65;;;;;;;17.56;92.01;99685.81;5033013;28;20391;-63
2023/06/06 09:29:08;;;;;;;1.10;0.93;;;;;;;17.62;91.69;99688.19;5033504;28;20049;-63
2023/06/06 09:31:38;;;;;;;0.73;0.73;;;;;;;17.59;91.54;99677.13;5033963;28;20049;-63
2023/06/06 09:34:10;;;;;;;1.40;1.00;;;;;;;17.75;91.53;99693.84;5034330;28;20426;-63
2023/06/06 09:36:43;;;;;;;0.68;0.68;;;;;;;17.79;91.30;99685.09;5033571;28;20067;-63
2023/06/06 09:39:14;;;;;;;2.35;1.90;;;;;;;17.84;91.25;99680.66;5033678;28;20049;-63
2023/06/06 09:41:45;;;;;;;1.20;1.02;;;;;;;17.95;91.23;99687.19;5033700;28;20085;-63
2023/06/06 09:44:21;;;;;;;1.17;0.77;;;;;;;17.93;90.83;99682.94;5033881;28;20041;-63
2023/06/06 09:46:51;;;;;;;1.20;1.05;;;;;;;17.91;90.72;99689.91;5033557;28;20053;-63
2023/06/06 09:49:22;;;;;;;0.75;0.75;;;;;;;17.95;90.56;99684.59;5033489;28;20064;-63
2023/06/06 09:51:53;;;;;;;0.57;0.57;;;;;;;17.98;90.34;99686.25;5033530;28;20045;-63
2023/06/06 09:54:24;;;;;;;1.10;1.00;;;;;;;18.00;90.39;99684.47;5033466;28;20053;-63
2023/06/06 09:56:56;;;;;;;1.48;0.80;;;;;;;18.01;90.46;99683.56;5034046;28;20041;-63
2023/06/06 09:59:26;;;;;;;0.98;0.88;;;;;;;18.04;90.29;99683.50;5033713;28;20034;-63
2023/06/06 10:02:00;;;;;;;1.05;1.02;;;;;;;18.02;90.20;99673.19;5034149;28;20103;-63
2023/06/06 10:04:33;;;;;;;5.82;1.20;;;;;;;18.05;89.98;99682.56;5033743;28;20049;-63
2023/06/06 10:07:05;;;;;;;1.90;1.25;;;;;;;18.06;89.96;99681.69;5033331;28;20060;-63
2023/06/06 10:09:35;;;;;;;0.73;0.73;;;;;;;18.07;90.00;99678.19;5033461;28;20096;-63
2023/06/06 10:12:04;;;;;;;1.73;1.08;;;;;;;18.06;89.93;99684.28;5033356;28;20046;-63
2023/06/06 10:14:33;;;;;;;1.13;1.02;;;;;;;18.07;89.76;99670.44;5033345;28;20107;-63
2023/06/06 10:17:02;;;;;;;0.75;0.75;;;;;;;18.11;89.83;99677.25;5033220;28;20103;-63
2023/06/06 10:19:34;;;;;;;1.45;1.35;;;;;;;18.11;89.68;99672.06;5033311;28;20057;-63
2023/06/06 10:22:03;;;;;;;0.70;0.68;;;;;;;18.17;89.58;99671.84;5033552;28;20403;-63
2023/06/06 10:24:32;;;;;;;0.63;0.63;;;;;;;18.23;89.46;99678.59;5035014;28;20084;-63
2023/06/06 10:27:11;;;;;;;1.42;1.17;;;;;;;18.27;89.35;99673.28;5037089;28;20045;-63
2023/06/06 10:29:48;;;;;;;2.88;1.48;;;;;;;18.29;89.01;99671.47;5036808;28;20060;-63
2023/06/06 10:32:25;;;;;;;1.08;0.82;;;;;;;18.32;88.85;99676.56;5037112;28;20073;-63
2023/06/06 10:34:58;;;;;;;1.15;1.05;;;;;;;18.26;88.64;99668.97;5037032;28;20080;-63
2023/06/06 10:37:27;;;;;;;0.70;0.70;;;;;;;18.20;88.50;99669.19;5036892;28;20045;-63
2023/06/06 10:40:05;;;;;;;0.87;0.87;;;;;;;18.22;88.54;99669.97;5037213;28;20120;-63
2023/06/06 10:42:38;;;;;;;1.02;0.98;;;;;;;18.24;88.83;99673.34;5035950;28;20333;-63
2023/06/06 10:45:08;;;;;;;1.00;0.85;;;;;;;18.27;88.79;99673.28;5037050;28;20056;-63
2023/06/06 10:47:41;;;;;;;1.27;1.05;;;;;;;18.27;88.19;99673.28;5036715;28;20041;-63
2023/06/06 10:50:23;;;;;;;1.52;1.42;;;;;;;18.29;88.94;99675.78;5037004;28;20045;-63
2023/06/06 10:52:55;;;;;;;0.80;0.80;;;;;;;18.27;88.41;99668.09;5036988;28;20043;-63
2023/06/06 10:55:41;;;;;;;1.17;0.95;;;;;;;18.30;88.94;99673.19;5036850;28;20119;-63
2023/06/06 10:58:13;;;;;;;2.60;1.33;;;;;;;18.20;88.68;99674.34;5037013;28;20495;-64
2023/06/06 11:00:44;;;;;;;1.65;0.98;;;;;;;18.20;88.82;99676.94;5036811;28;20046;-63
2023/06/06 11:03:16;;;;;;;1.05;0.95;;;;;;;18.18;88.83;99683.91;5036471;28;20124;-63
2023/06/06 11:06:06;;;;;;;1.15;0.90;;;;;;;18.21;88.21;99683.78;5036491;28;20048;-63
2023/06/06 11:08:40;;;;;;;0.50;0.50;;;;;;;18.22;88.33;99682.91;5036582;28;20491;-64
2023/06/06 11:11:23;;;;;;;1.77;1.10;;;;;;;18.20;88.20;99687.28;5036272;28;20060;-64
2023/06/06 11:13:53;;;;;;;0.47;0.47;;;;;;;18.16;88.01;99685.69;5036383;28;20048;-64
2023/06/06 11:16:52;;;;;;;0.90;0.88;;;;;;;18.12;87.71;99686.66;5036188;28;20050;-64
2023/06/06 11:19:37;;;;;;;0.80;0.80;;;;;;;18.13;87.25;99683.19;5036445;28;20041;-64
2023/06/06 11:22:06;;;;;;;2.08;0.98;;;;;;;18.19;87.05;99682.16;5036214;28;20052;-64
2023/06/06 11:24:37;;;;;;;0.80;0.80;;;;;;;18.25;86.43;99675.06;5036010;28;20121;-63
2023/06/06 11:27:09;;;;;;;0.80;0.80;;;;;;;18.29;86.70;99676.63;5036044;28;20049;-64
2023/06/06 11:29:39;;;;;;;2.40;1.92;;;;;;;18.26;86.59;99684.47;5035668;28;20049;-64
2023/06/06 11:32:11;;;;;;;6.43;1.55;;;;;;;18.28;86.68;99676.69;5035944;28;20053;-64
2023/06/06 11:34:41;;;;;;;1.17;0.82;;;;;;;18.33;86.44;99673.06;5035400;28;20053;-63
2023/06/06 11:37:10;;;;;;;1.35;0.88;;;;;;;18.28;87.15;99654.31;5036434;28;20048;-64
2023/06/06 11:39:40;;;;;;;1.17;1.00;;;;;;;18.44;87.13;99675.31;5036105;28;20042;-64
2023/06/06 11:42:17;;;;;;;1.52;1.13;;;;;;;18.43;87.20;99674.44;5035752;28;20286;-64
2023/06/06 11:44:46;;;;;;;1.00;0.90;;;;;;;18.42;87.18;99672.78;5035810;28;20060;-64
2023/06/06 11:47:15;;;;;;;0.70;0.70;;;;;;;18.47;87.24;99673.50;5035936;28;20045;-64
2023/06/06 11:49:47;;;;;;;1.15;1.02;;;;;;;18.52;87.16;99683.69;5036466;28;20372;-64
2023/06/06 11:52:16;;;;;;;1.20;1.10;;;;;;;18.50;87.19;99678.56;5035878;28;20423;-64